Terminal Aerodrome Forecast
Issued by NWS North Platte, NE

Home | Current Version | Previous Version | Text Only | Print | Product List | Glossary On
Versions: 1 2 3 4 5 6 7 8 9 10 11 12 13 14 15 16 17 18 19 20 21 22
000
FTUS43 KLBF 091100
TAFVTN
TAF
KVTN 091120Z 0912/1012 17006KT P6SM BKN090
     FM091800 15011KT P6SM BKN080
     FM100100 14009KT P6SM SCT080=

USA.gov is the U.S. government's official web portal to all federal, state and local government web resources and services.